sensor_id;sensor_type;location;lat;lon;timestamp;P1;durP1;ratioP1;P2;durP2;ratioP2
23474;SDS011;11910;52.086;21.066;2022-12-29T00:02:17;9.75;;;6.30;;
23474;SDS011;11910;52.086;21.066;2022-12-29T00:04:43;10.05;;;6.50;;
23474;SDS011;11910;52.086;21.066;2022-12-29T00:07:09;12.57;;;6.60;;
23474;SDS011;11910;52.086;21.066;2022-12-29T00:09:35;10.15;;;6.57;;
23474;SDS011;11910;52.086;21.066;2022-12-29T00:12:01;10.98;;;6.80;;
23474;SDS011;11910;52.086;21.066;2022-12-29T00:14:30;10.27;;;6.65;;
23474;SDS011;11910;52.086;21.066;2022-12-29T00:17:14;11.40;;;6.82;;
23474;SDS011;11910;52.086;21.066;2022-12-29T00:19:40;11.25;;;6.35;;
23474;SDS011;11910;52.086;21.066;2022-12-29T00:22:24;10.32;;;6.43;;
23474;SDS011;11910;52.086;21.066;2022-12-29T00:25:10;10.45;;;6.57;;
23474;SDS011;11910;52.086;21.066;2022-12-29T00:27:55;10.10;;;6.60;;
23474;SDS011;11910;52.086;21.066;2022-12-29T00:30:40;10.20;;;6.28;;
23474;SDS011;11910;52.086;21.066;2022-12-29T00:33:28;10.32;;;6.20;;
23474;SDS011;11910;52.086;21.066;2022-12-29T00:36:21;10.43;;;6.88;;
23474;SDS011;11910;52.086;21.066;2022-12-29T00:39:08;10.02;;;6.28;;
23474;SDS011;11910;52.086;21.066;2022-12-29T00:41:55;10.80;;;6.35;;
23474;SDS011;11910;52.086;21.066;2022-12-29T00:44:39;9.52;;;6.18;;
23474;SDS011;11910;52.086;21.066;2022-12-29T00:47:05;12.85;;;6.47;;
23474;SDS011;11910;52.086;21.066;2022-12-29T00:49:31;10.88;;;6.28;;
23474;SDS011;11910;52.086;21.066;2022-12-29T00:54:28;10.30;;;5.57;;
23474;SDS011;11910;52.086;21.066;2022-12-29T00:56:55;9.60;;;5.68;;
23474;SDS011;11910;52.086;21.066;2022-12-29T00:59:21;10.10;;;5.93;;
23474;SDS011;11910;52.086;21.066;2022-12-29T01:01:49;10.38;;;6.05;;
23474;SDS011;11910;52.086;21.066;2022-12-29T01:04:16;9.73;;;6.07;;
23474;SDS011;11910;52.086;21.066;2022-12-29T01:06:41;8.18;;;5.65;;
23474;SDS011;11910;52.086;21.066;2022-12-29T01:09:07;11.63;;;5.80;;
23474;SDS011;11910;52.086;21.066;2022-12-29T01:11:52;10.63;;;6.10;;
23474;SDS011;11910;52.086;21.066;2022-12-29T01:14:18;9.07;;;5.45;;
23474;SDS011;11910;52.086;21.066;2022-12-29T01:16:45;11.40;;;5.68;;
23474;SDS011;11910;52.086;21.066;2022-12-29T01:19:12;9.27;;;5.45;;
23474;SDS011;11910;52.086;21.066;2022-12-29T01:21:38;9.77;;;5.50;;
23474;SDS011;11910;52.086;21.066;2022-12-29T01:24:03;9.38;;;5.53;;
23474;SDS011;11910;52.086;21.066;2022-12-29T01:26:29;8.63;;;5.22;;
23474;SDS011;11910;52.086;21.066;2022-12-29T01:28:55;11.45;;;5.30;;
23474;SDS011;11910;52.086;21.066;2022-12-29T01:31:21;9.15;;;5.32;;
23474;SDS011;11910;52.086;21.066;2022-12-29T01:33:46;9.30;;;5.18;;
23474;SDS011;11910;52.086;21.066;2022-12-29T01:36:13;8.52;;;5.25;;
23474;SDS011;11910;52.086;21.066;2022-12-29T01:38:40;8.60;;;5.15;;
23474;SDS011;11910;52.086;21.066;2022-12-29T01:41:07;8.43;;;5.20;;
23474;SDS011;11910;52.086;21.066;2022-12-29T01:46:36;8.15;;;5.28;;
23474;SDS011;11910;52.086;21.066;2022-12-29T01:49:16;8.85;;;5.32;;
23474;SDS011;11910;52.086;21.066;2022-12-29T01:51:45;11.48;;;5.40;;
23474;SDS011;11910;52.086;21.066;2022-12-29T01:54:30;7.55;;;4.88;;
23474;SDS011;11910;52.086;21.066;2022-12-29T01:56:59;8.02;;;5.35;;
23474;SDS011;11910;52.086;21.066;2022-12-29T01:59:31;9.60;;;5.57;;
23474;SDS011;11910;52.086;21.066;2022-12-29T02:02:00;8.38;;;5.00;;
23474;SDS011;11910;52.086;21.066;2022-12-29T02:04:27;10.02;;;5.03;;
23474;SDS011;11910;52.086;21.066;2022-12-29T02:06:58;9.75;;;5.22;;
23474;SDS011;11910;52.086;21.066;2022-12-29T02:09:27;8.90;;;4.97;;
23474;SDS011;11910;52.086;21.066;2022-12-29T02:11:53;7.93;;;4.60;;
23474;SDS011;11910;52.086;21.066;2022-12-29T02:14:19;8.07;;;4.95;;
23474;SDS011;11910;52.086;21.066;2022-12-29T02:16:56;8.10;;;4.65;;
23474;SDS011;11910;52.086;21.066;2022-12-29T02:27:49;7.85;;;4.55;;
23474;SDS011;11910;52.086;21.066;2022-12-29T02:30:42;9.35;;;4.72;;
23474;SDS011;11910;52.086;21.066;2022-12-29T02:41:29;9.07;;;4.85;;
23474;SDS011;11910;52.086;21.066;2022-12-29T02:44:21;8.00;;;4.82;;
23474;SDS011;11910;52.086;21.066;2022-12-29T02:49:41;7.05;;;4.80;;
23474;SDS011;11910;52.086;21.066;2022-12-29T02:52:20;8.35;;;5.05;;
23474;SDS011;11910;52.086;21.066;2022-12-29T02:54:52;7.25;;;4.55;;
23474;SDS011;11910;52.086;21.066;2022-12-29T02:59:55;8.77;;;4.88;;
23474;SDS011;11910;52.086;21.066;2022-12-29T03:02:30;12.90;;;4.88;;
23474;SDS011;11910;52.086;21.066;2022-12-29T03:07:52;8.85;;;5.00;;
23474;SDS011;11910;52.086;21.066;2022-12-29T03:10:46;9.13;;;5.20;;
23474;SDS011;11910;52.086;21.066;2022-12-29T03:14:04;12.32;;;5.85;;
23474;SDS011;11910;52.086;21.066;2022-12-29T03:17:09;9.95;;;6.07;;
23474;SDS011;11910;52.086;21.066;2022-12-29T03:19:59;12.73;;;7.38;;
23474;SDS011;11910;52.086;21.066;2022-12-29T03:22:31;16.25;;;6.72;;
23474;SDS011;11910;52.086;21.066;2022-12-29T03:27:39;11.63;;;7.57;;
23474;SDS011;11910;52.086;21.066;2022-12-29T03:30:08;11.32;;;7.50;;
23474;SDS011;11910;52.086;21.066;2022-12-29T03:32:36;12.20;;;7.55;;
23474;SDS011;11910;52.086;21.066;2022-12-29T03:35:09;12.27;;;7.25;;
23474;SDS011;11910;52.086;21.066;2022-12-29T03:37:39;17.58;;;8.32;;
23474;SDS011;11910;52.086;21.066;2022-12-29T03:40:08;16.25;;;8.93;;
23474;SDS011;11910;52.086;21.066;2022-12-29T03:42:35;16.92;;;8.80;;
23474;SDS011;11910;52.086;21.066;2022-12-29T03:45:02;13.13;;;8.18;;
23474;SDS011;11910;52.086;21.066;2022-12-29T03:47:29;14.02;;;8.32;;
23474;SDS011;11910;52.086;21.066;2022-12-29T03:49:55;15.18;;;8.45;;
23474;SDS011;11910;52.086;21.066;2022-12-29T03:52:21;14.77;;;9.20;;
23474;SDS011;11910;52.086;21.066;2022-12-29T03:54:46;18.15;;;9.00;;
23474;SDS011;11910;52.086;21.066;2022-12-29T03:57:12;13.85;;;8.80;;
23474;SDS011;11910;52.086;21.066;2022-12-29T03:59:37;16.30;;;9.88;;
23474;SDS011;11910;52.086;21.066;2022-12-29T04:02:03;19.40;;;11.50;;
23474;SDS011;11910;52.086;21.066;2022-12-29T04:04:28;23.40;;;13.40;;
23474;SDS011;11910;52.086;21.066;2022-12-29T04:06:54;18.73;;;12.63;;
23474;SDS011;11910;52.086;21.066;2022-12-29T04:09:19;21.23;;;11.63;;
23474;SDS011;11910;52.086;21.066;2022-12-29T04:11:45;18.90;;;10.68;;
23474;SDS011;11910;52.086;21.066;2022-12-29T04:14:11;17.73;;;10.35;;
23474;SDS011;11910;52.086;21.066;2022-12-29T04:16:36;16.83;;;11.23;;
23474;SDS011;11910;52.086;21.066;2022-12-29T04:19:04;22.35;;;13.80;;
23474;SDS011;11910;52.086;21.066;2022-12-29T04:21:30;20.65;;;11.18;;
23474;SDS011;11910;52.086;21.066;2022-12-29T04:23:56;20.83;;;11.40;;
23474;SDS011;11910;52.086;21.066;2022-12-29T04:26:22;18.73;;;11.18;;
23474;SDS011;11910;52.086;21.066;2022-12-29T04:28:47;18.60;;;11.68;;
23474;SDS011;11910;52.086;21.066;2022-12-29T04:31:13;19.92;;;12.07;;
23474;SDS011;11910;52.086;21.066;2022-12-29T04:33:38;18.15;;;11.25;;
23474;SDS011;11910;52.086;21.066;2022-12-29T04:36:04;20.58;;;11.63;;
23474;SDS011;11910;52.086;21.066;2022-12-29T04:38:30;19.60;;;10.40;;
23474;SDS011;11910;52.086;21.066;2022-12-29T04:40:58;18.17;;;11.00;;
23474;SDS011;11910;52.086;21.066;2022-12-29T04:43:24;16.38;;;9.80;;
23474;SDS011;11910;52.086;21.066;2022-12-29T04:45:50;15.18;;;9.85;;
23474;SDS011;11910;52.086;21.066;2022-12-29T04:48:15;17.27;;;9.70;;
23474;SDS011;11910;52.086;21.066;2022-12-29T04:50:41;26.40;;;14.55;;
23474;SDS011;11910;52.086;21.066;2022-12-29T04:53:07;19.83;;;12.38;;
23474;SDS011;11910;52.086;21.066;2022-12-29T04:55:33;21.63;;;12.20;;
23474;SDS011;11910;52.086;21.066;2022-12-29T04:57:58;17.25;;;10.20;;
23474;SDS011;11910;52.086;21.066;2022-12-29T05:00:24;15.65;;;8.88;;
23474;SDS011;11910;52.086;21.066;2022-12-29T05:02:50;16.05;;;9.80;;
23474;SDS011;11910;52.086;21.066;2022-12-29T05:05:16;16.38;;;9.50;;
23474;SDS011;11910;52.086;21.066;2022-12-29T05:07:42;14.88;;;8.95;;
23474;SDS011;11910;52.086;21.066;2022-12-29T05:10:08;14.63;;;9.38;;
23474;SDS011;11910;52.086;21.066;2022-12-29T05:12:35;14.05;;;8.80;;
23474;SDS011;11910;52.086;21.066;2022-12-29T05:15:02;20.17;;;12.32;;
23474;SDS011;11910;52.086;21.066;2022-12-29T05:17:28;17.27;;;9.75;;
23474;SDS011;11910;52.086;21.066;2022-12-29T05:19:54;13.93;;;9.40;;
23474;SDS011;11910;52.086;21.066;2022-12-29T05:22:19;15.65;;;9.02;;
23474;SDS011;11910;52.086;21.066;2022-12-29T05:24:45;14.57;;;8.70;;
23474;SDS011;11910;52.086;21.066;2022-12-29T05:27:11;15.90;;;8.93;;
23474;SDS011;11910;52.086;21.066;2022-12-29T05:29:36;13.30;;;7.70;;
23474;SDS011;11910;52.086;21.066;2022-12-29T05:32:02;13.57;;;8.48;;
23474;SDS011;11910;52.086;21.066;2022-12-29T05:34:28;15.85;;;8.68;;
23474;SDS011;11910;52.086;21.066;2022-12-29T05:36:53;15.63;;;7.97;;
23474;SDS011;11910;52.086;21.066;2022-12-29T05:39:19;14.65;;;8.48;;
23474;SDS011;11910;52.086;21.066;2022-12-29T05:41:45;15.75;;;8.05;;
23474;SDS011;11910;52.086;21.066;2022-12-29T05:44:10;14.07;;;8.20;;
23474;SDS011;11910;52.086;21.066;2022-12-29T05:46:36;13.25;;;8.07;;
23474;SDS011;11910;52.086;21.066;2022-12-29T05:49:02;13.05;;;8.25;;
23474;SDS011;11910;52.086;21.066;2022-12-29T05:51:27;12.35;;;8.07;;
23474;SDS011;11910;52.086;21.066;2022-12-29T05:53:53;18.15;;;10.23;;
23474;SDS011;11910;52.086;21.066;2022-12-29T05:56:19;17.95;;;10.50;;
23474;SDS011;11910;52.086;21.066;2022-12-29T05:58:44;14.43;;;8.75;;
23474;SDS011;11910;52.086;21.066;2022-12-29T06:01:10;14.13;;;7.85;;
23474;SDS011;11910;52.086;21.066;2022-12-29T06:03:35;17.48;;;11.00;;
23474;SDS011;11910;52.086;21.066;2022-12-29T06:06:01;19.25;;;9.68;;
23474;SDS011;11910;52.086;21.066;2022-12-29T06:08:26;20.90;;;12.13;;
23474;SDS011;11910;52.086;21.066;2022-12-29T06:10:52;16.08;;;8.57;;
23474;SDS011;11910;52.086;21.066;2022-12-29T06:13:17;15.63;;;9.07;;
23474;SDS011;11910;52.086;21.066;2022-12-29T06:15:43;15.00;;;8.60;;
23474;SDS011;11910;52.086;21.066;2022-12-29T06:18:09;13.35;;;7.18;;
23474;SDS011;11910;52.086;21.066;2022-12-29T06:20:34;13.07;;;8.20;;
23474;SDS011;11910;52.086;21.066;2022-12-29T06:23:00;13.40;;;8.85;;
23474;SDS011;11910;52.086;21.066;2022-12-29T06:25:26;14.02;;;7.93;;
23474;SDS011;11910;52.086;21.066;2022-12-29T06:27:52;15.43;;;8.25;;
23474;SDS011;11910;52.086;21.066;2022-12-29T06:30:17;14.55;;;8.32;;
23474;SDS011;11910;52.086;21.066;2022-12-29T06:32:43;11.82;;;7.45;;
23474;SDS011;11910;52.086;21.066;2022-12-29T06:35:09;14.60;;;6.80;;
23474;SDS011;11910;52.086;21.066;2022-12-29T06:37:35;12.02;;;7.25;;
23474;SDS011;11910;52.086;21.066;2022-12-29T06:40:00;13.75;;;7.53;;
23474;SDS011;11910;52.086;21.066;2022-12-29T06:42:27;10.50;;;6.38;;
23474;SDS011;11910;52.086;21.066;2022-12-29T06:44:53;13.93;;;6.53;;
23474;SDS011;11910;52.086;21.066;2022-12-29T06:47:18;11.73;;;7.18;;
23474;SDS011;11910;52.086;21.066;2022-12-29T06:49:44;13.98;;;7.50;;
23474;SDS011;11910;52.086;21.066;2022-12-29T06:52:10;12.55;;;7.22;;
23474;SDS011;11910;52.086;21.066;2022-12-29T06:54:36;16.50;;;10.63;;
23474;SDS011;11910;52.086;21.066;2022-12-29T06:57:01;16.02;;;9.70;;
23474;SDS011;11910;52.086;21.066;2022-12-29T06:59:27;13.70;;;7.07;;
23474;SDS011;11910;52.086;21.066;2022-12-29T07:01:52;15.02;;;8.93;;
23474;SDS011;11910;52.086;21.066;2022-12-29T07:04:19;13.07;;;8.10;;
23474;SDS011;11910;52.086;21.066;2022-12-29T07:06:44;14.05;;;8.32;;
23474;SDS011;11910;52.086;21.066;2022-12-29T07:09:10;20.42;;;11.77;;
23474;SDS011;11910;52.086;21.066;2022-12-29T07:11:36;19.95;;;11.50;;
23474;SDS011;11910;52.086;21.066;2022-12-29T07:14:02;15.05;;;10.30;;
23474;SDS011;11910;52.086;21.066;2022-12-29T07:16:28;10.25;;;6.10;;
23474;SDS011;11910;52.086;21.066;2022-12-29T07:18:55;14.32;;;8.27;;
23474;SDS011;11910;52.086;21.066;2022-12-29T07:21:21;17.98;;;11.05;;
23474;SDS011;11910;52.086;21.066;2022-12-29T07:23:46;15.25;;;9.60;;
23474;SDS011;11910;52.086;21.066;2022-12-29T07:26:13;29.38;;;17.88;;
23474;SDS011;11910;52.086;21.066;2022-12-29T07:28:42;14.23;;;8.88;;
23474;SDS011;11910;52.086;21.066;2022-12-29T07:31:19;14.65;;;7.60;;
23474;SDS011;11910;52.086;21.066;2022-12-29T07:33:46;11.40;;;7.57;;
23474;SDS011;11910;52.086;21.066;2022-12-29T07:36:13;12.02;;;7.65;;
23474;SDS011;11910;52.086;21.066;2022-12-29T07:38:39;13.40;;;7.88;;
23474;SDS011;11910;52.086;21.066;2022-12-29T07:41:06;9.95;;;6.40;;
23474;SDS011;11910;52.086;21.066;2022-12-29T07:43:32;9.98;;;6.30;;
23474;SDS011;11910;52.086;21.066;2022-12-29T07:45:58;9.32;;;6.38;;
23474;SDS011;11910;52.086;21.066;2022-12-29T07:48:24;9.98;;;5.95;;
23474;SDS011;11910;52.086;21.066;2022-12-29T07:50:50;10.27;;;6.50;;
23474;SDS011;11910;52.086;21.066;2022-12-29T07:53:16;11.18;;;6.45;;
23474;SDS011;11910;52.086;21.066;2022-12-29T07:55:42;12.23;;;7.00;;
23474;SDS011;11910;52.086;21.066;2022-12-29T07:58:07;11.55;;;7.40;;
23474;SDS011;11910;52.086;21.066;2022-12-29T08:00:33;12.50;;;7.43;;
23474;SDS011;11910;52.086;21.066;2022-12-29T08:02:59;12.25;;;7.65;;
23474;SDS011;11910;52.086;21.066;2022-12-29T08:05:24;11.77;;;8.10;;
23474;SDS011;11910;52.086;21.066;2022-12-29T08:07:50;13.63;;;6.88;;
23474;SDS011;11910;52.086;21.066;2022-12-29T08:10:16;14.85;;;7.10;;
23474;SDS011;11910;52.086;21.066;2022-12-29T08:12:43;11.13;;;7.45;;
23474;SDS011;11910;52.086;21.066;2022-12-29T08:15:10;10.55;;;7.45;;
23474;SDS011;11910;52.086;21.066;2022-12-29T08:17:36;12.00;;;6.80;;
23474;SDS011;11910;52.086;21.066;2022-12-29T08:20:02;16.73;;;9.50;;
23474;SDS011;11910;52.086;21.066;2022-12-29T08:22:28;13.70;;;8.18;;
23474;SDS011;11910;52.086;21.066;2022-12-29T08:24:54;10.88;;;6.97;;
23474;SDS011;11910;52.086;21.066;2022-12-29T08:27:20;10.90;;;5.97;;
23474;SDS011;11910;52.086;21.066;2022-12-29T08:29:45;9.45;;;6.15;;
23474;SDS011;11910;52.086;21.066;2022-12-29T08:32:11;10.55;;;6.10;;
23474;SDS011;11910;52.086;21.066;2022-12-29T08:34:37;11.52;;;6.45;;
23474;SDS011;11910;52.086;21.066;2022-12-29T08:37:03;10.32;;;6.28;;
23474;SDS011;11910;52.086;21.066;2022-12-29T08:39:28;9.25;;;6.38;;
23474;SDS011;11910;52.086;21.066;2022-12-29T08:41:54;9.25;;;6.43;;
23474;SDS011;11910;52.086;21.066;2022-12-29T08:44:20;11.80;;;6.50;;
23474;SDS011;11910;52.086;21.066;2022-12-29T08:46:45;14.55;;;7.43;;
23474;SDS011;11910;52.086;21.066;2022-12-29T08:49:11;12.80;;;7.68;;
23474;SDS011;11910;52.086;21.066;2022-12-29T08:51:37;14.45;;;7.20;;
23474;SDS011;11910;52.086;21.066;2022-12-29T08:54:02;10.93;;;7.15;;
23474;SDS011;11910;52.086;21.066;2022-12-29T08:56:28;12.60;;;7.03;;
23474;SDS011;11910;52.086;21.066;2022-12-29T08:58:54;8.13;;;5.43;;
23474;SDS011;11910;52.086;21.066;2022-12-29T09:01:21;9.85;;;6.10;;
23474;SDS011;11910;52.086;21.066;2022-12-29T09:03:46;9.70;;;5.65;;
23474;SDS011;11910;52.086;21.066;2022-12-29T09:06:13;10.35;;;5.70;;
23474;SDS011;11910;52.086;21.066;2022-12-29T09:08:40;8.73;;;5.65;;
23474;SDS011;11910;52.086;21.066;2022-12-29T09:11:09;9.13;;;5.47;;
23474;SDS011;11910;52.086;21.066;2022-12-29T09:13:39;8.50;;;5.10;;
23474;SDS011;11910;52.086;21.066;2022-12-29T09:16:05;9.93;;;5.55;;
23474;SDS011;11910;52.086;21.066;2022-12-29T09:18:31;9.43;;;5.32;;
23474;SDS011;11910;52.086;21.066;2022-12-29T09:21:00;8.50;;;5.05;;
23474;SDS011;11910;52.086;21.066;2022-12-29T09:23:27;11.57;;;5.13;;
23474;SDS011;11910;52.086;21.066;2022-12-29T09:25:53;9.65;;;5.13;;
23474;SDS011;11910;52.086;21.066;2022-12-29T09:28:19;7.53;;;4.88;;
23474;SDS011;11910;52.086;21.066;2022-12-29T09:30:45;10.30;;;5.53;;
23474;SDS011;11910;52.086;21.066;2022-12-29T09:33:11;9.48;;;5.70;;
23474;SDS011;11910;52.086;21.066;2022-12-29T09:35:40;13.00;;;5.25;;
23474;SDS011;11910;52.086;21.066;2022-12-29T09:38:07;8.45;;;5.10;;
23474;SDS011;11910;52.086;21.066;2022-12-29T09:40:32;10.48;;;5.57;;
23474;SDS011;11910;52.086;21.066;2022-12-29T09:43:05;7.72;;;5.00;;
23474;SDS011;11910;52.086;21.066;2022-12-29T09:45:56;10.00;;;5.72;;
23474;SDS011;11910;52.086;21.066;2022-12-29T09:48:34;8.63;;;5.30;;
23474;SDS011;11910;52.086;21.066;2022-12-29T09:51:07;10.23;;;5.30;;
23474;SDS011;11910;52.086;21.066;2022-12-29T09:53:38;8.23;;;5.30;;
23474;SDS011;11910;52.086;21.066;2022-12-29T09:56:10;8.30;;;5.38;;
23474;SDS011;11910;52.086;21.066;2022-12-29T09:58:41;9.52;;;5.90;;
23474;SDS011;11910;52.086;21.066;2022-12-29T10:03:58;9.40;;;5.53;;
23474;SDS011;11910;52.086;21.066;2022-12-29T10:20:33;10.45;;;6.20;;
23474;SDS011;11910;52.086;21.066;2022-12-29T10:25:58;9.13;;;5.88;;
23474;SDS011;11910;52.086;21.066;2022-12-29T10:30:54;12.98;;;8.32;;
23474;SDS011;11910;52.086;21.066;2022-12-29T10:33:24;8.48;;;5.80;;
23474;SDS011;11910;52.086;21.066;2022-12-29T10:35:56;9.32;;;5.68;;
23474;SDS011;11910;52.086;21.066;2022-12-29T10:38:27;9.48;;;5.90;;
23474;SDS011;11910;52.086;21.066;2022-12-29T10:41:16;10.77;;;6.70;;
23474;SDS011;11910;52.086;21.066;2022-12-29T10:43:48;12.30;;;6.38;;
23474;SDS011;11910;52.086;21.066;2022-12-29T10:46:23;11.18;;;6.10;;
23474;SDS011;11910;52.086;21.066;2022-12-29T10:48:53;12.68;;;7.28;;
23474;SDS011;11910;52.086;21.066;2022-12-29T10:51:29;10.93;;;6.60;;
23474;SDS011;11910;52.086;21.066;2022-12-29T10:54:06;10.82;;;6.50;;
23474;SDS011;11910;52.086;21.066;2022-12-29T10:56:53;11.23;;;6.10;;
23474;SDS011;11910;52.086;21.066;2022-12-29T10:59:26;13.65;;;6.63;;
23474;SDS011;11910;52.086;21.066;2022-12-29T11:04:54;24.33;;;17.25;;
23474;SDS011;11910;52.086;21.066;2022-12-29T11:07:34;25.55;;;16.10;;
23474;SDS011;11910;52.086;21.066;2022-12-29T11:13:00;10.38;;;6.20;;
23474;SDS011;11910;52.086;21.066;2022-12-29T11:15:28;11.57;;;7.55;;
23474;SDS011;11910;52.086;21.066;2022-12-29T11:18:04;12.30;;;7.53;;
23474;SDS011;11910;52.086;21.066;2022-12-29T11:20:31;13.20;;;7.75;;
23474;SDS011;11910;52.086;21.066;2022-12-29T11:23:03;11.93;;;7.10;;
23474;SDS011;11910;52.086;21.066;2022-12-29T11:25:34;13.52;;;7.32;;
23474;SDS011;11910;52.086;21.066;2022-12-29T11:30:29;14.45;;;6.80;;
23474;SDS011;11910;52.086;21.066;2022-12-29T11:32:56;10.65;;;6.53;;
23474;SDS011;11910;52.086;21.066;2022-12-29T11:35:30;13.23;;;6.65;;
23474;SDS011;11910;52.086;21.066;2022-12-29T11:38:00;10.82;;;6.65;;
23474;SDS011;11910;52.086;21.066;2022-12-29T11:40:28;10.10;;;6.40;;
23474;SDS011;11910;52.086;21.066;2022-12-29T11:42:58;8.57;;;6.15;;
23474;SDS011;11910;52.086;21.066;2022-12-29T11:45:35;9.05;;;6.45;;
23474;SDS011;11910;52.086;21.066;2022-12-29T11:48:09;11.35;;;6.30;;
23474;SDS011;11910;52.086;21.066;2022-12-29T11:50:41;12.60;;;6.05;;
23474;SDS011;11910;52.086;21.066;2022-12-29T11:53:18;10.77;;;6.35;;
23474;SDS011;11910;52.086;21.066;2022-12-29T11:55:58;9.60;;;5.88;;
23474;SDS011;11910;52.086;21.066;2022-12-29T11:58:30;9.60;;;6.15;;
23474;SDS011;11910;52.086;21.066;2022-12-29T12:01:15;11.25;;;6.47;;
23474;SDS011;11910;52.086;21.066;2022-12-29T12:03:52;9.15;;;6.13;;
23474;SDS011;11910;52.086;21.066;2022-12-29T12:06:33;12.35;;;6.88;;
23474;SDS011;11910;52.086;21.066;2022-12-29T12:09:08;12.30;;;6.75;;
23474;SDS011;11910;52.086;21.066;2022-12-29T12:11:40;10.27;;;6.93;;
23474;SDS011;11910;52.086;21.066;2022-12-29T12:14:25;15.05;;;8.13;;
23474;SDS011;11910;52.086;21.066;2022-12-29T12:16:56;11.75;;;7.05;;
23474;SDS011;11910;52.086;21.066;2022-12-29T12:19:45;11.23;;;6.30;;
23474;SDS011;11910;52.086;21.066;2022-12-29T12:22:27;11.95;;;6.38;;
23474;SDS011;11910;52.086;21.066;2022-12-29T12:27:55;12.77;;;7.50;;
23474;SDS011;11910;52.086;21.066;2022-12-29T12:30:24;12.20;;;6.80;;
23474;SDS011;11910;52.086;21.066;2022-12-29T12:33:56;13.45;;;6.57;;
23474;SDS011;11910;52.086;21.066;2022-12-29T12:41:39;13.82;;;8.00;;
23474;SDS011;11910;52.086;21.066;2022-12-29T12:49:54;11.88;;;7.15;;
23474;SDS011;11910;52.086;21.066;2022-12-29T12:55:18;12.50;;;7.28;;
23474;SDS011;11910;52.086;21.066;2022-12-29T12:58:20;13.15;;;7.57;;
23474;SDS011;11910;52.086;21.066;2022-12-29T13:14:27;13.88;;;6.72;;
23474;SDS011;11910;52.086;21.066;2022-12-29T13:20:31;10.65;;;6.20;;
23474;SDS011;11910;52.086;21.066;2022-12-29T13:26:01;11.27;;;6.00;;
23474;SDS011;11910;52.086;21.066;2022-12-29T13:28:49;9.93;;;6.10;;
23474;SDS011;11910;52.086;21.066;2022-12-29T13:34:03;11.60;;;6.30;;
23474;SDS011;11910;52.086;21.066;2022-12-29T13:36:42;11.25;;;6.45;;
23474;SDS011;11910;52.086;21.066;2022-12-29T13:41:47;11.48;;;6.85;;
23474;SDS011;11910;52.086;21.066;2022-12-29T13:44:17;11.32;;;6.60;;
23474;SDS011;11910;52.086;21.066;2022-12-29T13:46:48;9.35;;;5.90;;
23474;SDS011;11910;52.086;21.066;2022-12-29T13:52:12;12.30;;;6.82;;
23474;SDS011;11910;52.086;21.066;2022-12-29T13:54:57;9.38;;;6.40;;
23474;SDS011;11910;52.086;21.066;2022-12-29T13:58:04;10.38;;;5.97;;
23474;SDS011;11910;52.086;21.066;2022-12-29T14:00:42;13.70;;;6.75;;
23474;SDS011;11910;52.086;21.066;2022-12-29T14:03:49;11.13;;;6.93;;
23474;SDS011;11910;52.086;21.066;2022-12-29T14:08:53;10.88;;;6.70;;
23474;SDS011;11910;52.086;21.066;2022-12-29T14:11:22;12.30;;;5.82;;
23474;SDS011;11910;52.086;21.066;2022-12-29T14:13:55;9.30;;;6.18;;
23474;SDS011;11910;52.086;21.066;2022-12-29T14:16:25;12.48;;;6.63;;
23474;SDS011;11910;52.086;21.066;2022-12-29T14:18:54;11.75;;;6.32;;
23474;SDS011;11910;52.086;21.066;2022-12-29T14:21:22;12.35;;;6.50;;
23474;SDS011;11910;52.086;21.066;2022-12-29T14:23:54;12.60;;;7.05;;
23474;SDS011;11910;52.086;21.066;2022-12-29T14:26:45;13.15;;;7.00;;
23474;SDS011;11910;52.086;21.066;2022-12-29T14:31:53;12.07;;;7.32;;
23474;SDS011;11910;52.086;21.066;2022-12-29T14:36:54;11.60;;;6.55;;
23474;SDS011;11910;52.086;21.066;2022-12-29T14:39:38;12.00;;;6.53;;
23474;SDS011;11910;52.086;21.066;2022-12-29T14:42:14;12.23;;;6.70;;
23474;SDS011;11910;52.086;21.066;2022-12-29T14:44:46;11.40;;;7.00;;
23474;SDS011;11910;52.086;21.066;2022-12-29T14:47:14;12.48;;;7.15;;
23474;SDS011;11910;52.086;21.066;2022-12-29T14:49:56;12.77;;;7.03;;
23474;SDS011;11910;52.086;21.066;2022-12-29T14:52:32;12.05;;;7.60;;
23474;SDS011;11910;52.086;21.066;2022-12-29T14:55:40;15.23;;;8.38;;
23474;SDS011;11910;52.086;21.066;2022-12-29T15:00:45;14.70;;;7.80;;
23474;SDS011;11910;52.086;21.066;2022-12-29T15:06:17;14.05;;;8.13;;
23474;SDS011;11910;52.086;21.066;2022-12-29T15:11:48;13.48;;;7.57;;
23474;SDS011;11910;52.086;21.066;2022-12-29T15:14:34;12.50;;;7.35;;
23474;SDS011;11910;52.086;21.066;2022-12-29T15:17:00;11.07;;;6.85;;
23474;SDS011;11910;52.086;21.066;2022-12-29T15:19:27;12.68;;;7.22;;
23474;SDS011;11910;52.086;21.066;2022-12-29T15:21:53;10.05;;;6.93;;
23474;SDS011;11910;52.086;21.066;2022-12-29T15:24:20;13.23;;;7.40;;
23474;SDS011;11910;52.086;21.066;2022-12-29T15:26:47;12.00;;;6.35;;
23474;SDS011;11910;52.086;21.066;2022-12-29T15:32:39;11.05;;;6.25;;
23474;SDS011;11910;52.086;21.066;2022-12-29T15:35:15;13.00;;;7.15;;
23474;SDS011;11910;52.086;21.066;2022-12-29T15:37:47;12.18;;;7.35;;
23474;SDS011;11910;52.086;21.066;2022-12-29T15:40:21;15.20;;;7.95;;
23474;SDS011;11910;52.086;21.066;2022-12-29T15:45:38;12.40;;;7.40;;
23474;SDS011;11910;52.086;21.066;2022-12-29T15:48:04;12.00;;;7.50;;
23474;SDS011;11910;52.086;21.066;2022-12-29T15:50:35;12.43;;;7.50;;
23474;SDS011;11910;52.086;21.066;2022-12-29T15:53:02;11.55;;;7.63;;
23474;SDS011;11910;52.086;21.066;2022-12-29T15:55:35;10.68;;;7.00;;
23474;SDS011;11910;52.086;21.066;2022-12-29T15:58:03;10.07;;;6.90;;
23474;SDS011;11910;52.086;21.066;2022-12-29T16:00:31;8.93;;;6.63;;
23474;SDS011;11910;52.086;21.066;2022-12-29T16:03:00;10.98;;;6.53;;
23474;SDS011;11910;52.086;21.066;2022-12-29T16:05:38;14.77;;;7.72;;
23474;SDS011;11910;52.086;21.066;2022-12-29T16:08:21;12.77;;;7.03;;
23474;SDS011;11910;52.086;21.066;2022-12-29T16:10:52;11.30;;;7.65;;
23474;SDS011;11910;52.086;21.066;2022-12-29T16:13:30;14.02;;;7.53;;
23474;SDS011;11910;52.086;21.066;2022-12-29T16:16:00;11.63;;;7.55;;
23474;SDS011;11910;52.086;21.066;2022-12-29T16:18:33;13.10;;;7.72;;
23474;SDS011;11910;52.086;21.066;2022-12-29T16:21:02;11.50;;;7.28;;
23474;SDS011;11910;52.086;21.066;2022-12-29T16:23:30;12.80;;;7.90;;
23474;SDS011;11910;52.086;21.066;2022-12-29T16:25:57;12.57;;;7.78;;
23474;SDS011;11910;52.086;21.066;2022-12-29T16:28:24;13.05;;;8.45;;
23474;SDS011;11910;52.086;21.066;2022-12-29T16:31:04;13.73;;;8.15;;
23474;SDS011;11910;52.086;21.066;2022-12-29T16:33:47;15.48;;;8.48;;
23474;SDS011;11910;52.086;21.066;2022-12-29T16:36:32;13.48;;;7.97;;
23474;SDS011;11910;52.086;21.066;2022-12-29T16:41:36;14.93;;;8.35;;
23474;SDS011;11910;52.086;21.066;2022-12-29T16:44:11;14.50;;;8.73;;
23474;SDS011;11910;52.086;21.066;2022-12-29T16:46:44;11.35;;;7.32;;
23474;SDS011;11910;52.086;21.066;2022-12-29T16:49:32;12.35;;;7.78;;
23474;SDS011;11910;52.086;21.066;2022-12-29T16:51:59;12.65;;;7.60;;
23474;SDS011;11910;52.086;21.066;2022-12-29T16:54:35;12.63;;;7.35;;
23474;SDS011;11910;52.086;21.066;2022-12-29T16:57:01;11.13;;;7.38;;
23474;SDS011;11910;52.086;21.066;2022-12-29T16:59:38;10.50;;;7.03;;